createdAt,value
2017-03-31T00:00:19.761Z,0
2017-03-31T00:01:00.278Z,0
2017-03-31T00:01:40.805Z,0
2017-03-31T00:02:21.322Z,0
2017-03-31T00:03:01.811Z,0
2017-03-31T00:03:42.330Z,0
2017-03-31T00:04:22.839Z,0
2017-03-31T00:05:03.351Z,0
2017-03-31T00:05:43.875Z,0
2017-03-31T00:06:24.402Z,0
2017-03-31T00:07:04.917Z,0
2017-03-31T00:07:45.442Z,0
2017-03-31T00:08:25.967Z,0
2017-03-31T00:09:06.467Z,0
2017-03-31T00:09:46.986Z,0
2017-03-31T00:10:27.492Z,0
2017-03-31T00:11:07.998Z,0
2017-03-31T00:11:48.502Z,0
2017-03-31T00:12:29.018Z,0
2017-03-31T00:13:09.522Z,0
2017-03-31T00:13:50.073Z,0
2017-03-31T00:14:30.570Z,0
2017-03-31T00:15:11.089Z,0
2017-03-31T00:15:51.613Z,0
2017-03-31T00:16:32.110Z,0
2017-03-31T00:17:12.611Z,0
2017-03-31T00:17:53.143Z,0
2017-03-31T00:18:33.665Z,0
2017-03-31T00:19:14.170Z,0
2017-03-31T00:19:54.680Z,0
2017-03-31T00:20:35.190Z,0
2017-03-31T00:21:15.732Z,0
2017-03-31T00:21:56.230Z,0
2017-03-31T00:22:36.737Z,0
2017-03-31T00:23:17.241Z,0
2017-03-31T00:23:57.776Z,0
2017-03-31T00:24:38.271Z,0
2017-03-31T00:25:18.801Z,0
2017-03-31T00:25:59.295Z,0
2017-03-31T00:26:39.806Z,0
2017-03-31T00:27:20.313Z,0
2017-03-31T00:28:00.835Z,0
2017-03-31T00:28:41.344Z,0
2017-03-31T00:29:21.851Z,0
2017-03-31T00:30:02.378Z,0
2017-03-31T00:30:42.890Z,0
2017-03-31T00:31:23.398Z,0
2017-03-31T00:32:03.919Z,0
2017-03-31T00:32:44.453Z,0
2017-03-31T00:33:24.940Z,0
2017-03-31T00:34:05.444Z,0
2017-03-31T00:34:45.955Z,0
2017-03-31T00:35:26.443Z,0
2017-03-31T00:36:06.957Z,0
2017-03-31T00:36:47.473Z,0
2017-03-31T00:37:28.001Z,0
2017-03-31T00:38:08.571Z,0
2017-03-31T00:38:49.040Z,0
2017-03-31T00:39:29.563Z,0
2017-03-31T00:40:10.052Z,0
2017-03-31T00:40:50.571Z,0
2017-03-31T00:41:31.077Z,0
2017-03-31T00:42:11.571Z,0
2017-03-31T00:42:52.083Z,0
2017-03-31T00:43:32.587Z,0
2017-03-31T00:44:13.131Z,0
2017-03-31T00:44:53.614Z,0
2017-03-31T00:45:34.128Z,0
2017-03-31T00:46:14.666Z,0
2017-03-31T00:46:55.164Z,0
2017-03-31T00:47:35.674Z,0
2017-03-31T00:48:16.191Z,0
2017-03-31T00:48:56.718Z,0
2017-03-31T00:49:37.227Z,0
2017-03-31T00:50:17.750Z,0
2017-03-31T00:50:58.261Z,0
2017-03-31T00:51:38.771Z,0
2017-03-31T00:52:19.301Z,0
2017-03-31T00:52:59.821Z,0
2017-03-31T00:53:40.311Z,0
2017-03-31T00:54:20.812Z,0
2017-03-31T00:55:01.326Z,0
2017-03-31T00:55:41.841Z,0
2017-03-31T00:56:22.364Z,0
2017-03-31T00:57:02.865Z,0
2017-03-31T00:57:43.375Z,0
2017-03-31T00:58:23.886Z,0
2017-03-31T00:59:04.399Z,0
2017-03-31T00:59:44.915Z,0
2017-03-31T01:00:25.429Z,0
2017-03-31T01:01:05.916Z,0
2017-03-31T01:01:46.428Z,0
2017-03-31T01:02:26.939Z,0
2017-03-31T01:03:07.443Z,0
2017-03-31T01:03:47.951Z,0
2017-03-31T01:04:28.457Z,0
2017-03-31T01:05:08.980Z,0
2017-03-31T01:05:49.500Z,0
2017-03-31T01:06:30.062Z,0
2017-03-31T01:07:10.558Z,0
2017-03-31T01:07:51.125Z,0
2017-03-31T01:08:31.728Z,0
2017-03-31T01:09:12.255Z,0
2017-03-31T01:09:52.754Z,0
2017-03-31T01:10:33.280Z,0
2017-03-31T01:11:13.803Z,0
2017-03-31T01:11:54.317Z,0
2017-03-31T01:12:34.830Z,0
2017-03-31T01:13:15.361Z,0
2017-03-31T01:13:55.870Z,0
2017-03-31T01:14:36.379Z,0
2017-03-31T01:15:16.894Z,0
2017-03-31T01:15:57.417Z,0
2017-03-31T01:16:37.928Z,0
2017-03-31T01:17:18.433Z,0
2017-03-31T01:17:58.953Z,0
2017-03-31T01:18:39.474Z,0
2017-03-31T01:19:19.986Z,0
2017-03-31T01:20:00.511Z,0
2017-03-31T01:20:41.053Z,0
2017-03-31T01:21:21.549Z,0
2017-03-31T01:22:02.071Z,0
2017-03-31T01:22:42.575Z,0
2017-03-31T01:23:23.096Z,0
2017-03-31T01:24:03.612Z,0
2017-03-31T01:24:44.107Z,0
2017-03-31T01:25:24.617Z,0
2017-03-31T01:26:05.144Z,0
2017-03-31T01:26:45.670Z,0
2017-03-31T01:27:26.196Z,0
2017-03-31T01:28:06.692Z,0
2017-03-31T01:28:47.194Z,0
2017-03-31T01:29:27.711Z,0
2017-03-31T01:30:08.229Z,0
2017-03-31T01:30:48.752Z,0
2017-03-31T01:31:29.268Z,0
2017-03-31T01:32:09.777Z,0
2017-03-31T01:32:50.282Z,0
2017-03-31T01:33:30.779Z,0
2017-03-31T01:34:11.313Z,0
2017-03-31T01:34:51.864Z,0
2017-03-31T01:35:32.384Z,0
2017-03-31T01:36:12.882Z,0
2017-03-31T01:36:53.420Z,0
2017-03-31T01:37:33.932Z,0
2017-03-31T01:38:14.438Z,0
2017-03-31T01:38:54.964Z,0
2017-03-31T01:39:35.455Z,0
2017-03-31T01:40:15.982Z,0
2017-03-31T01:40:56.506Z,0
2017-03-31T01:41:37.035Z,0
2017-03-31T01:42:17.557Z,0
2017-03-31T01:42:58.077Z,0
2017-03-31T01:43:38.574Z,0
2017-03-31T01:44:19.077Z,0
2017-03-31T01:44:59.572Z,0
2017-03-31T01:45:40.084Z,0
2017-03-31T01:46:20.596Z,0
2017-03-31T01:47:01.101Z,0
2017-03-31T01:47:41.621Z,0
2017-03-31T01:48:22.118Z,0
2017-03-31T01:49:02.619Z,0
2017-03-31T01:49:43.122Z,0
2017-03-31T01:50:23.641Z,0
2017-03-31T01:51:04.162Z,0
2017-03-31T01:51:44.683Z,0
2017-03-31T01:52:25.207Z,0
2017-03-31T01:53:05.713Z,0
2017-03-31T01:53:46.231Z,0
2017-03-31T01:54:26.742Z,0
2017-03-31T01:55:07.257Z,0
2017-03-31T01:55:47.770Z,0
2017-03-31T01:56:28.282Z,0
2017-03-31T01:57:08.810Z,0
2017-03-31T01:57:49.333Z,0
2017-03-31T01:58:29.837Z,0
2017-03-31T01:59:10.361Z,0
2017-03-31T01:59:50.863Z,0
2017-03-31T02:00:31.407Z,0
2017-03-31T02:01:11.918Z,0
2017-03-31T02:01:52.427Z,0
2017-03-31T02:02:32.950Z,0
2017-03-31T02:03:13.456Z,0
2017-03-31T02:03:53.964Z,0
2017-03-31T02:04:34.476Z,0
2017-03-31T02:05:14.966Z,0
2017-03-31T02:05:55.493Z,0
2017-03-31T02:06:35.993Z,0
2017-03-31T02:07:16.504Z,0
2017-03-31T02:07:57.020Z,0
2017-03-31T02:08:37.515Z,0
2017-03-31T02:09:18.027Z,0
2017-03-31T02:10:00.199Z,0
2017-03-31T02:10:40.701Z,0
2017-03-31T02:11:21.222Z,0
2017-03-31T02:12:01.748Z,0
2017-03-31T02:12:42.255Z,0
2017-03-31T02:13:22.785Z,0
2017-03-31T02:14:03.288Z,0
2017-03-31T02:14:43.798Z,0
2017-03-31T02:15:24.310Z,0
2017-03-31T02:16:04.845Z,0
2017-03-31T02:16:45.360Z,0
2017-03-31T02:17:25.858Z,0
2017-03-31T02:18:06.376Z,0
2017-03-31T02:18:46.910Z,0
2017-03-31T02:19:27.457Z,0
2017-03-31T02:20:07.972Z,0
2017-03-31T02:20:48.483Z,0
2017-03-31T02:21:29.006Z,0
2017-03-31T02:22:09.507Z,0
2017-03-31T02:22:50.046Z,0
2017-03-31T02:23:30.543Z,0
2017-03-31T02:24:11.072Z,0
2017-03-31T02:24:51.599Z,0
2017-03-31T02:25:32.097Z,0
2017-03-31T02:26:12.608Z,0
2017-03-31T02:26:53.122Z,0
2017-03-31T02:27:33.631Z,0
2017-03-31T02:28:14.185Z,0
2017-03-31T02:28:54.662Z,0
2017-03-31T02:29:35.183Z,0
2017-03-31T02:30:15.687Z,0
2017-03-31T02:30:56.202Z,0
2017-03-31T02:31:36.720Z,0
2017-03-31T02:32:17.233Z,0
2017-03-31T02:32:57.737Z,0
2017-03-31T02:33:38.247Z,0
2017-03-31T02:34:18.768Z,0
2017-03-31T02:34:59.278Z,0
2017-03-31T02:35:39.788Z,0
2017-03-31T02:36:20.300Z,0
2017-03-31T02:37:00.833Z,0
2017-03-31T02:37:41.335Z,0
2017-03-31T02:38:21.853Z,0
2017-03-31T02:39:02.367Z,0
2017-03-31T02:39:42.883Z,0
2017-03-31T02:40:23.401Z,0
2017-03-31T02:41:03.921Z,0
2017-03-31T02:41:44.415Z,0
2017-03-31T02:42:24.926Z,0
2017-03-31T02:43:05.435Z,0
2017-03-31T02:43:45.955Z,0
2017-03-31T02:44:26.479Z,0
2017-03-31T02:45:07.001Z,0
2017-03-31T02:45:47.514Z,0
2017-03-31T02:46:28.024Z,0
2017-03-31T02:47:08.546Z,0
2017-03-31T02:47:49.077Z,0
2017-03-31T02:48:29.569Z,0
2017-03-31T02:49:10.133Z,0
2017-03-31T02:49:50.651Z,0
2017-03-31T02:50:31.151Z,0
2017-03-31T02:51:11.674Z,0
2017-03-31T02:51:52.182Z,0
2017-03-31T02:52:32.701Z,0
2017-03-31T02:53:13.227Z,0
2017-03-31T02:53:53.746Z,0
2017-03-31T02:54:34.254Z,0
2017-03-31T02:55:14.790Z,0
2017-03-31T02:55:55.312Z,0
2017-03-31T02:56:35.852Z,0
2017-03-31T02:57:16.335Z,0
2017-03-31T02:57:56.876Z,0
2017-03-31T02:58:37.399Z,0
2017-03-31T02:59:17.907Z,0
2017-03-31T02:59:58.443Z,0
2017-03-31T03:00:38.955Z,0
2017-03-31T03:01:19.486Z,0
2017-03-31T03:02:00.009Z,0
2017-03-31T03:02:40.543Z,0
2017-03-31T03:03:21.080Z,0
2017-03-31T03:04:01.564Z,0
2017-03-31T03:04:42.076Z,0
2017-03-31T03:05:22.610Z,0
2017-03-31T03:06:03.139Z,0
2017-03-31T03:06:43.653Z,0
2017-03-31T03:07:24.174Z,0
2017-03-31T03:08:04.703Z,0
2017-03-31T03:08:45.212Z,0
2017-03-31T03:09:25.730Z,0
2017-03-31T03:10:06.242Z,0
2017-03-31T03:10:46.761Z,0
2017-03-31T03:11:27.293Z,0
2017-03-31T03:12:07.872Z,0
2017-03-31T03:12:48.384Z,0
2017-03-31T03:13:28.934Z,0
2017-03-31T03:14:09.461Z,0
2017-03-31T03:14:49.993Z,0
2017-03-31T03:15:30.517Z,0
2017-03-31T03:16:11.051Z,0
2017-03-31T03:16:51.586Z,0
2017-03-31T03:17:32.130Z,0
2017-03-31T03:18:12.602Z,0
2017-03-31T03:18:53.120Z,0
2017-03-31T03:19:33.641Z,0
2017-03-31T03:20:14.163Z,0
2017-03-31T03:20:54.650Z,0
2017-03-31T03:21:35.144Z,0
2017-03-31T03:22:15.667Z,0
2017-03-31T03:22:56.233Z,0
2017-03-31T03:23:36.717Z,0
2017-03-31T03:24:17.245Z,0
2017-03-31T03:24:57.761Z,0
2017-03-31T03:25:38.262Z,0
2017-03-31T03:26:18.748Z,0
2017-03-31T03:26:59.269Z,0
2017-03-31T03:27:39.783Z,0
2017-03-31T03:28:20.302Z,0
2017-03-31T03:29:00.827Z,0
2017-03-31T03:29:41.332Z,0
2017-03-31T03:30:21.850Z,0
2017-03-31T03:31:02.360Z,0
2017-03-31T03:31:42.874Z,0
2017-03-31T03:32:23.407Z,0
2017-03-31T03:33:03.920Z,0
2017-03-31T03:33:44.427Z,0
2017-03-31T03:34:24.957Z,0
2017-03-31T03:35:05.464Z,0
2017-03-31T03:35:45.985Z,0
2017-03-31T03:36:26.501Z,0
2017-03-31T03:37:07.015Z,0
2017-03-31T03:37:47.578Z,0
2017-03-31T03:38:28.068Z,0
2017-03-31T03:39:08.598Z,0
2017-03-31T03:39:49.108Z,0
2017-03-31T03:40:29.620Z,0
2017-03-31T03:41:10.172Z,0
2017-03-31T03:41:50.659Z,0
2017-03-31T03:42:31.188Z,0
2017-03-31T03:43:11.741Z,0
2017-03-31T03:43:52.231Z,0
2017-03-31T03:44:32.744Z,0
2017-03-31T03:45:13.264Z,0
2017-03-31T03:45:53.773Z,0
2017-03-31T03:46:34.316Z,0
2017-03-31T03:47:14.825Z,0
2017-03-31T03:47:55.355Z,0
2017-03-31T03:48:35.864Z,0
2017-03-31T03:49:16.373Z,0
2017-03-31T03:49:56.901Z,0
2017-03-31T03:50:37.412Z,0
2017-03-31T03:51:17.921Z,0
2017-03-31T03:51:58.404Z,0
2017-03-31T03:52:38.982Z,0
2017-03-31T03:53:19.489Z,0
2017-03-31T03:53:59.997Z,0
2017-03-31T03:54:40.509Z,0
2017-03-31T03:55:21.024Z,0
2017-03-31T03:56:01.564Z,0
2017-03-31T03:56:42.076Z,0
2017-03-31T03:57:22.592Z,0
2017-03-31T03:58:03.140Z,0
2017-03-31T03:58:43.608Z,0
2017-03-31T03:59:24.137Z,0
2017-03-31T04:00:04.678Z,0
2017-03-31T04:00:45.290Z,0
2017-03-31T04:01:25.888Z,0
2017-03-31T04:02:06.394Z,0
2017-03-31T04:02:46.897Z,0
2017-03-31T04:03:27.401Z,0
2017-03-31T04:04:07.904Z,0
2017-03-31T04:04:48.458Z,0
2017-03-31T04:05:28.948Z,0
2017-03-31T04:06:09.451Z,0
2017-03-31T04:06:50.025Z,0
2017-03-31T04:07:30.522Z,0
2017-03-31T04:08:11.243Z,0
2017-03-31T04:08:51.978Z,0
2017-03-31T04:09:32.760Z,0
2017-03-31T04:10:13.480Z,0
2017-03-31T04:10:54.297Z,0
2017-03-31T04:11:35.051Z,0
2017-03-31T04:12:15.803Z,0
2017-03-31T04:12:56.583Z,0
2017-03-31T04:13:37.374Z,0
2017-03-31T04:14:18.233Z,0
2017-03-31T04:14:58.988Z,0
2017-03-31T04:15:39.768Z,0
2017-03-31T04:16:21.202Z,0
2017-03-31T04:17:01.767Z,0
2017-03-31T04:17:42.225Z,0
2017-03-31T04:18:22.736Z,0
2017-03-31T04:19:03.272Z,0
2017-03-31T04:19:43.777Z,0
2017-03-31T04:20:24.290Z,0
2017-03-31T04:21:04.855Z,0
2017-03-31T04:21:45.365Z,0
2017-03-31T04:22:25.887Z,0
2017-03-31T04:23:06.382Z,0
2017-03-31T04:23:46.882Z,0
2017-03-31T04:24:27.378Z,0
2017-03-31T04:25:07.886Z,0
2017-03-31T04:25:48.464Z,0
2017-03-31T04:26:28.960Z,0
2017-03-31T04:27:09.488Z,0
2017-03-31T04:27:49.996Z,0
2017-03-31T04:28:30.477Z,0
2017-03-31T04:29:11.012Z,0
2017-03-31T04:29:51.532Z,0
2017-03-31T04:30:32.062Z,0
2017-03-31T04:31:12.595Z,0
2017-03-31T04:31:53.104Z,0
2017-03-31T04:32:33.608Z,0
2017-03-31T04:33:14.140Z,0
2017-03-31T04:33:54.685Z,0
2017-03-31T04:34:35.165Z,0
2017-03-31T04:35:15.687Z,0
2017-03-31T04:35:56.247Z,0
2017-03-31T04:36:36.756Z,0
2017-03-31T04:37:17.314Z,0
2017-03-31T04:37:57.854Z,0
2017-03-31T04:38:38.550Z,0
2017-03-31T04:39:19.093Z,0
2017-03-31T04:39:59.597Z,0
2017-03-31T04:40:40.107Z,0
2017-03-31T04:41:21.694Z,0
2017-03-31T04:42:02.216Z,0
2017-03-31T04:42:42.741Z,0
2017-03-31T04:43:23.341Z,0
2017-03-31T04:44:03.901Z,0
2017-03-31T04:44:44.464Z,0
2017-03-31T04:45:25.007Z,0
2017-03-31T04:48:25.166Z,0
2017-03-31T04:49:05.691Z,0
2017-03-31T04:49:46.249Z,0
2017-03-31T04:50:26.728Z,0
2017-03-31T04:51:07.225Z,0
2017-03-31T04:51:47.755Z,0
2017-03-31T04:52:28.233Z,0
2017-03-31T04:53:08.746Z,0
2017-03-31T04:53:49.248Z,0
2017-03-31T04:54:29.748Z,0
2017-03-31T04:55:10.276Z,0
2017-03-31T04:55:50.759Z,0
2017-03-31T04:56:31.298Z,0
2017-03-31T04:57:11.817Z,0
2017-03-31T04:57:52.323Z,0
2017-03-31T04:58:32.876Z,0
2017-03-31T04:59:13.402Z,0
2017-03-31T04:59:53.989Z,0
2017-03-31T05:00:34.503Z,0
2017-03-31T05:01:15.170Z,0
2017-03-31T05:01:55.618Z,0
2017-03-31T05:02:36.115Z,0
2017-03-31T05:03:16.654Z,0
2017-03-31T05:03:57.187Z,0
2017-03-31T05:04:37.669Z,0
2017-03-31T05:05:18.206Z,0
2017-03-31T05:05:58.684Z,0
2017-03-31T05:06:39.186Z,5
2017-03-31T05:07:19.712Z,5
2017-03-31T05:08:00.245Z,5
2017-03-31T05:08:40.746Z,5
2017-03-31T05:09:21.285Z,5
2017-03-31T05:10:01.802Z,5
2017-03-31T05:10:42.308Z,5
2017-03-31T05:11:22.846Z,5
2017-03-31T05:12:03.369Z,5
2017-03-31T05:12:43.894Z,5
2017-03-31T05:13:24.389Z,5
2017-03-31T05:14:04.948Z,5
2017-03-31T05:14:45.497Z,5
2017-03-31T05:15:26.023Z,10
2017-03-31T05:16:06.537Z,10
2017-03-31T05:16:47.059Z,10
2017-03-31T05:17:27.579Z,10
2017-03-31T05:18:08.115Z,10
2017-03-31T05:18:48.660Z,10
2017-03-31T05:19:29.201Z,10
2017-03-31T05:20:09.709Z,10
2017-03-31T05:20:50.196Z,10
2017-03-31T05:21:30.737Z,10
2017-03-31T05:22:11.256Z,15
2017-03-31T05:22:51.771Z,15
2017-03-31T05:23:32.369Z,15
2017-03-31T05:24:13.012Z,15
2017-03-31T05:24:53.556Z,15
2017-03-31T05:25:34.066Z,15
2017-03-31T05:26:14.534Z,15
2017-03-31T05:26:55.075Z,20
2017-03-31T05:27:35.614Z,20
2017-03-31T05:28:16.117Z,20
2017-03-31T05:28:56.640Z,20
2017-03-31T05:29:37.135Z,20
2017-03-31T05:30:17.662Z,20
2017-03-31T05:30:58.133Z,25
2017-03-31T05:31:38.647Z,25
2017-03-31T05:32:19.166Z,25
2017-03-31T05:32:59.657Z,25
2017-03-31T05:33:40.180Z,25
2017-03-31T05:34:20.666Z,25
2017-03-31T05:35:01.197Z,25
2017-03-31T05:35:41.713Z,30
2017-03-31T05:36:22.211Z,30
2017-03-31T05:37:02.798Z,30
2017-03-31T05:37:43.308Z,30
2017-03-31T05:38:23.911Z,30
2017-03-31T05:39:04.328Z,30
2017-03-31T05:39:44.855Z,35
2017-03-31T05:40:25.389Z,35
2017-03-31T05:41:05.885Z,35
2017-03-31T05:41:46.387Z,35
2017-03-31T05:42:26.910Z,35
2017-03-31T05:43:08.130Z,40
2017-03-31T05:43:48.655Z,40
2017-03-31T05:44:29.195Z,40
2017-03-31T05:45:09.732Z,40
2017-03-31T05:45:50.269Z,40
2017-03-31T05:46:30.812Z,40
2017-03-31T05:47:11.590Z,40
2017-03-31T05:47:52.268Z,40
2017-03-31T05:48:32.805Z,45
2017-03-31T05:49:13.325Z,45
2017-03-31T05:49:53.851Z,45
2017-03-31T05:50:34.389Z,45
2017-03-31T05:51:14.908Z,45
2017-03-31T05:51:55.412Z,45
2017-03-31T05:52:35.951Z,45
2017-03-31T05:53:16.474Z,50
2017-03-31T05:53:56.944Z,50
2017-03-31T05:54:37.472Z,50
2017-03-31T05:55:18.007Z,50
2017-03-31T05:55:58.548Z,50
2017-03-31T05:56:39.063Z,50
2017-03-31T05:57:19.579Z,55
2017-03-31T05:58:00.122Z,55
2017-03-31T05:58:40.623Z,55
2017-03-31T05:59:21.153Z,55
2017-03-31T06:00:01.681Z,55
2017-03-31T06:00:44.004Z,55
2017-03-31T06:01:24.544Z,60
2017-03-31T06:02:05.052Z,60
2017-03-31T06:02:45.561Z,60
2017-03-31T06:03:26.088Z,60
2017-03-31T06:04:06.604Z,60
2017-03-31T06:04:47.146Z,60
2017-03-31T06:05:27.725Z,65
2017-03-31T06:06:08.259Z,65
2017-03-31T06:06:48.803Z,65
2017-03-31T06:07:29.323Z,65
2017-03-31T06:08:09.820Z,70
2017-03-31T06:08:50.336Z,70
2017-03-31T06:09:30.836Z,70
2017-03-31T06:10:11.371Z,75
2017-03-31T06:10:51.897Z,75
2017-03-31T06:11:32.437Z,75
2017-03-31T06:12:12.945Z,80
2017-03-31T06:12:53.461Z,80
2017-03-31T06:13:33.989Z,80
2017-03-31T06:14:14.517Z,80
2017-03-31T06:14:55.033Z,80
2017-03-31T06:15:35.552Z,80
2017-03-31T06:16:16.078Z,80
2017-03-31T06:16:56.595Z,80
2017-03-31T06:17:37.124Z,85
2017-03-31T06:18:17.667Z,85
2017-03-31T06:18:58.197Z,85
2017-03-31T06:19:38.710Z,85
2017-03-31T06:20:19.215Z,90
2017-03-31T06:20:59.770Z,90
2017-03-31T06:21:40.250Z,90
2017-03-31T06:22:20.785Z,90
2017-03-31T06:23:01.320Z,95
2017-03-31T06:23:41.852Z,95
2017-03-31T06:24:22.360Z,95
2017-03-31T06:25:02.883Z,100
2017-03-31T06:25:43.430Z,100
2017-03-31T06:26:23.946Z,100
2017-03-31T06:27:04.471Z,100
2017-03-31T06:27:44.999Z,100
2017-03-31T06:28:25.529Z,100
2017-03-31T06:29:06.070Z,105
2017-03-31T06:29:46.608Z,105
2017-03-31T06:30:27.138Z,105
2017-03-31T06:31:07.673Z,105
2017-03-31T06:31:48.209Z,105
2017-03-31T06:32:28.736Z,105
2017-03-31T06:33:09.270Z,105
2017-03-31T06:33:49.797Z,105
2017-03-31T06:34:30.333Z,105
2017-03-31T06:35:10.849Z,105
2017-03-31T06:35:51.416Z,105
2017-03-31T06:36:31.931Z,105
2017-03-31T06:37:12.470Z,105
2017-03-31T06:37:52.991Z,105
2017-03-31T06:38:33.528Z,110
2017-03-31T06:39:14.062Z,110
2017-03-31T06:39:54.586Z,110
2017-03-31T06:40:35.119Z,115
2017-03-31T06:41:15.658Z,115
2017-03-31T06:41:56.191Z,115
2017-03-31T06:42:36.723Z,120
2017-03-31T06:43:17.233Z,120
2017-03-31T06:43:57.784Z,120
2017-03-31T06:44:38.319Z,125
2017-03-31T06:45:18.844Z,125
2017-03-31T06:45:59.377Z,125
2017-03-31T06:46:39.900Z,125
2017-03-31T06:47:20.433Z,130
2017-03-31T06:48:00.967Z,130
2017-03-31T06:48:41.520Z,130
2017-03-31T06:49:22.049Z,135
2017-03-31T06:50:02.607Z,135
2017-03-31T06:50:43.121Z,135
2017-03-31T06:51:23.650Z,140
2017-03-31T06:52:04.169Z,140
2017-03-31T06:52:44.709Z,140
2017-03-31T06:53:25.251Z,140
2017-03-31T06:54:05.769Z,140
2017-03-31T06:54:46.290Z,140
2017-03-31T06:55:26.813Z,140
2017-03-31T06:56:07.377Z,140
2017-03-31T06:56:47.895Z,140
2017-03-31T06:57:28.399Z,140
2017-03-31T06:58:08.922Z,140
2017-03-31T06:58:49.446Z,145
2017-03-31T06:59:29.966Z,145
2017-03-31T07:00:10.495Z,145
2017-03-31T07:00:51.028Z,145
2017-03-31T07:01:31.564Z,150
2017-03-31T07:02:12.063Z,155
2017-03-31T07:02:52.577Z,155
2017-03-31T07:03:33.119Z,155
2017-03-31T07:04:13.672Z,155
2017-03-31T07:04:54.201Z,155
2017-03-31T07:05:34.717Z,155
2017-03-31T07:06:15.249Z,155
2017-03-31T07:06:55.798Z,160
2017-03-31T07:07:36.329Z,160
2017-03-31T07:08:16.844Z,165
2017-03-31T07:08:57.351Z,165
2017-03-31T07:09:37.885Z,165
2017-03-31T07:10:18.431Z,170
2017-03-31T07:10:58.973Z,170
2017-03-31T07:11:39.508Z,170
2017-03-31T07:12:20.034Z,170
2017-03-31T07:13:00.555Z,170
2017-03-31T07:13:41.093Z,170
2017-03-31T07:14:21.623Z,170
2017-03-31T07:15:02.133Z,170
2017-03-31T07:15:42.649Z,170
2017-03-31T07:16:23.183Z,170
2017-03-31T07:17:03.755Z,175
2017-03-31T07:17:44.284Z,180
2017-03-31T07:18:24.827Z,180
2017-03-31T07:19:05.369Z,180
2017-03-31T07:19:45.896Z,185
2017-03-31T07:20:26.413Z,185
2017-03-31T07:21:06.953Z,185
2017-03-31T07:21:47.467Z,190
2017-03-31T07:22:27.974Z,185
2017-03-31T07:23:08.596Z,185
2017-03-31T07:23:49.129Z,185
2017-03-31T07:24:29.684Z,190
2017-03-31T07:25:10.196Z,190
2017-03-31T07:25:50.725Z,190
2017-03-31T07:26:31.251Z,190
2017-03-31T07:27:11.792Z,190
2017-03-31T07:27:52.336Z,195
2017-03-31T07:28:32.868Z,195
2017-03-31T07:29:13.394Z,195
2017-03-31T07:29:53.917Z,190
2017-03-31T07:30:34.457Z,195
2017-03-31T07:31:14.998Z,195
2017-03-31T07:31:55.529Z,195
2017-03-31T07:32:36.056Z,195
2017-03-31T07:33:16.575Z,200
2017-03-31T07:33:57.101Z,200
2017-03-31T07:34:37.640Z,205
2017-03-31T07:35:18.175Z,205
2017-03-31T07:35:58.709Z,205
2017-03-31T07:36:39.227Z,205
2017-03-31T07:37:19.749Z,210
2017-03-31T07:38:00.283Z,215
2017-03-31T07:38:40.826Z,220
2017-03-31T07:39:21.364Z,220
2017-03-31T07:40:01.885Z,225
2017-03-31T07:40:42.404Z,230
2017-03-31T07:41:22.936Z,230
2017-03-31T07:42:03.461Z,225
2017-03-31T07:42:43.981Z,230
2017-03-31T07:43:24.515Z,230
2017-03-31T07:44:05.066Z,230
2017-03-31T07:44:45.585Z,235
2017-03-31T07:45:26.125Z,235
2017-03-31T07:46:06.656Z,240
2017-03-31T07:46:47.183Z,245
2017-03-31T07:47:27.721Z,250
2017-03-31T07:48:08.262Z,255
2017-03-31T07:48:48.789Z,255
2017-03-31T07:49:29.316Z,255
2017-03-31T07:50:09.848Z,255
2017-03-31T07:50:50.378Z,255
2017-03-31T07:51:30.921Z,255
2017-03-31T07:52:11.451Z,250
2017-03-31T07:52:51.988Z,255
2017-03-31T07:53:32.525Z,255
2017-03-31T07:54:13.045Z,260
2017-03-31T07:54:53.582Z,265
2017-03-31T07:55:34.102Z,280
2017-03-31T07:56:14.635Z,290
2017-03-31T07:56:55.136Z,290
2017-03-31T07:57:35.665Z,290
2017-03-31T07:58:16.186Z,290
2017-03-31T07:58:56.722Z,290
2017-03-31T07:59:37.231Z,295
2017-03-31T08:00:17.770Z,290
2017-03-31T08:00:58.290Z,295
2017-03-31T08:01:38.817Z,295
2017-03-31T08:02:19.344Z,300
2017-03-31T08:02:59.875Z,305
2017-03-31T08:03:40.408Z,305
2017-03-31T08:04:20.943Z,305
2017-03-31T08:05:01.465Z,305
2017-03-31T08:05:41.994Z,315
2017-03-31T08:06:22.535Z,315
2017-03-31T08:07:03.074Z,330
2017-03-31T08:07:43.597Z,410
2017-03-31T08:08:24.115Z,720
2017-03-31T08:09:04.650Z,680
2017-03-31T08:09:45.169Z,525
2017-03-31T08:10:25.704Z,360
2017-03-31T08:11:06.249Z,350
2017-03-31T08:11:46.773Z,350
2017-03-31T08:12:27.297Z,350
2017-03-31T08:13:07.836Z,355
2017-03-31T08:13:48.364Z,365
2017-03-31T08:14:28.881Z,410
2017-03-31T08:15:09.418Z,450
2017-03-31T08:15:49.944Z,430
2017-03-31T08:16:30.479Z,370
2017-03-31T08:17:11.019Z,370
2017-03-31T08:17:51.545Z,440
2017-03-31T08:18:32.073Z,535
2017-03-31T08:19:12.606Z,585
2017-03-31T08:19:53.138Z,495
2017-03-31T08:20:33.648Z,385
2017-03-31T08:21:14.187Z,380
2017-03-31T08:21:54.714Z,370
2017-03-31T08:22:35.230Z,370
2017-03-31T08:23:15.770Z,390
2017-03-31T08:23:56.318Z,405
2017-03-31T08:24:36.865Z,415
2017-03-31T08:25:17.391Z,400
2017-03-31T08:25:57.926Z,380
2017-03-31T08:26:38.429Z,380
2017-03-31T08:27:18.959Z,395
2017-03-31T08:27:59.487Z,405
2017-03-31T08:28:40.009Z,405
2017-03-31T08:29:20.543Z,390
2017-03-31T08:30:01.091Z,385
2017-03-31T08:30:41.623Z,400
2017-03-31T08:31:22.203Z,460
2017-03-31T08:32:02.741Z,505
2017-03-31T08:32:43.276Z,500
2017-03-31T08:33:23.809Z,425
2017-03-31T08:34:04.331Z,385
2017-03-31T08:34:44.864Z,370
2017-03-31T08:35:25.412Z,360
2017-03-31T08:36:05.945Z,350
2017-03-31T08:36:46.479Z,345
2017-03-31T08:37:27.014Z,335
2017-03-31T08:38:07.543Z,330
2017-03-31T08:38:48.072Z,325
2017-03-31T08:39:28.603Z,330
2017-03-31T08:40:09.136Z,335
2017-03-31T08:40:49.667Z,350
2017-03-31T08:41:30.196Z,350
2017-03-31T08:42:10.712Z,355
2017-03-31T08:42:51.234Z,365
2017-03-31T08:43:31.765Z,375
2017-03-31T08:44:12.304Z,420
2017-03-31T08:44:52.832Z,605
2017-03-31T08:45:33.359Z,660
2017-03-31T08:46:13.868Z,655
2017-03-31T08:46:54.419Z,495
2017-03-31T08:47:34.954Z,635
2017-03-31T08:48:15.470Z,735
2017-03-31T08:48:55.994Z,650
2017-03-31T08:49:36.529Z,440
2017-03-31T08:50:17.082Z,415
2017-03-31T08:50:57.637Z,400
2017-03-31T08:51:40.062Z,395
2017-03-31T08:52:20.594Z,395
2017-03-31T08:53:01.129Z,400
2017-03-31T08:53:41.668Z,405
2017-03-31T08:54:22.220Z,415
2017-03-31T08:55:02.727Z,425
2017-03-31T08:55:43.263Z,440
2017-03-31T08:56:23.792Z,465
2017-03-31T08:57:04.346Z,495
2017-03-31T08:57:44.910Z,645
2017-03-31T08:58:25.405Z,925
2017-03-31T08:59:05.937Z,1350
2017-03-31T08:59:46.478Z,1605
2017-03-31T09:00:27.012Z,1735
2017-03-31T09:01:07.567Z,1955
2017-03-31T09:01:48.106Z,2155
2017-03-31T09:02:28.656Z,2250
2017-03-31T09:03:09.200Z,2250
2017-03-31T09:03:49.746Z,2160
2017-03-31T09:04:30.274Z,2270
2017-03-31T09:05:10.826Z,2075
2017-03-31T09:05:51.349Z,2060
2017-03-31T09:06:31.882Z,2280
2017-03-31T09:07:12.460Z,2270
2017-03-31T09:07:52.997Z,2185
2017-03-31T09:08:33.533Z,2215
2017-03-31T09:09:14.071Z,1890
2017-03-31T09:09:54.613Z,1790
2017-03-31T09:10:35.154Z,1720
2017-03-31T09:11:15.688Z,1740
2017-03-31T09:11:56.238Z,1855
2017-03-31T09:12:36.757Z,2090
2017-03-31T09:13:17.292Z,2370
2017-03-31T09:13:57.828Z,2165
2017-03-31T09:14:38.371Z,2115
2017-03-31T09:15:18.915Z,1925
2017-03-31T09:15:59.471Z,1830
2017-03-31T09:16:40.023Z,2000
2017-03-31T09:17:20.566Z,1890
2017-03-31T09:18:01.116Z,2015
2017-03-31T09:18:41.658Z,2095
2017-03-31T09:19:22.203Z,2270
2017-03-31T09:20:02.760Z,2155
2017-03-31T09:20:43.314Z,2185
2017-03-31T09:21:23.897Z,1940
2017-03-31T09:22:04.428Z,1895
2017-03-31T09:22:44.944Z,1765
2017-03-31T09:23:25.474Z,1870
2017-03-31T09:24:06.018Z,2080
2017-03-31T09:24:46.559Z,2125
2017-03-31T09:25:27.099Z,2060
2017-03-31T09:26:07.640Z,2080
2017-03-31T09:26:48.191Z,2335
2017-03-31T09:27:28.742Z,2325
2017-03-31T09:28:09.293Z,1935
2017-03-31T09:28:49.831Z,2345
2017-03-31T09:29:30.370Z,2555
2017-03-31T09:30:10.899Z,2425
2017-03-31T09:30:51.438Z,2540
2017-03-31T09:31:31.965Z,2610
2017-03-31T09:32:12.498Z,2460
2017-03-31T09:32:53.038Z,2430
2017-03-31T09:33:33.590Z,2240
2017-03-31T09:34:14.129Z,2070
2017-03-31T09:34:54.674Z,2110
2017-03-31T09:35:35.246Z,2160
2017-03-31T09:36:15.791Z,2195
2017-03-31T09:36:56.335Z,2310
2017-03-31T09:37:36.891Z,2370
2017-03-31T09:38:17.443Z,2535
2017-03-31T09:38:58.000Z,2535
2017-03-31T09:39:38.554Z,2580
2017-03-31T09:40:19.101Z,2480
2017-03-31T09:40:59.651Z,2455
2017-03-31T09:41:40.197Z,2470
2017-03-31T09:42:20.757Z,2440
2017-03-31T09:43:01.308Z,2450